Startpagina
METAR-TAF:

METAR-TAF

Vliegvelden :

Spaa

Tomaszów Mazowiecki, Polen

breedte: 51-35-04N, lengte: 020-05-52E, hoogte: 174 m

METAR: ontbreekt

Tijdstip: 20:30 (19:30 UTC)

Verwachting

Dit bericht is 2 uur en het 30 minuten geleden gemaakt, om 17:00 UTC
Verwachting geldig van 17 om 18 UTC tot 18 om 03 UTC
Wind 6 kt uit het westzuidwesten
Zicht 10 km of meer
geen wolken onder 1500 m en geen cumulonimbus
Wijzigt naar
van 17 om 21 UTC tot 17 om 23 UTC
Gebroken wolken op 3500 ft
Kans 30%
van 17 om 18 UTC tot 17 om 24 UTC
Zicht: 6000 m
Verspreide wolken op 2000 ft
lichte regen

TAF: EPTM 171700Z 1718/1803 25006KT CAVOK BECMG 1721/1723 BKN035 PROB30 1718/1724 6000 -RA SCT020

Waarnemingen en weersverwachtingen van meer dan 4000 vliegvelden (METAR en TAF).

De beschikbare stations zijn de gele en rode punten op de kaart.

Ga met uw muis naar het station om de naam te zien.

Klik dan om waarnemingen en weersverwachtingen te zien.

kaart wijzigen: klik op de groene knoppen met een zwart kruis om in te zoomen, op de groene knop met een streepje om uit te zoomen of op de groene pijlen voor aangrenzende kaarten.


METAR-TAF: